^^
Meteo Knjazevac Station Historical Data
Daily Summary for May 3, 2022 Units:  English    Metric   Both
Daily Weekly Monthly Yearly Custom
  High: Low: Average:
Temperature: 71.4 °F 48 °F 57.6 °F
Dew Point: 54.7 °F 44.6 °F 50.1 °F
Humidity: 98% 51.6% 78%
Wind Speed: 11.2mph 0.3mph 4.3mph
Wind Gust: 13mph - -
Wind- - SW
Pressure: 30.26 in 30.12 in -
Precipitation: 0.00 in    
Historical Graphs
 
 
Tabular Data for May 3, 2022
Time Temperature Dew Point Pressure Wind Wind Speed Wind Gust Humidity Rainfall Rate (Hourly) solar Conditions
00:04 55.6 °F 48.8 °F 30.22 in SW 2.7 mph 2.2 mph 78% 0.00 in 0 W/m2
00:09 55.4 °F 48.8 °F 30.22 in WSW 3.2 mph 3 mph 78.3% 0.00 in 0 W/m2
00:14 55.3 °F 49 °F 30.22 in WSW 3 mph 4 mph 79.2% 0.00 in 0 W/m2
00:19 55.2 °F 49.1 °F 30.22 in WSW 3.3 mph 4 mph 79.7% 0.00 in 0 W/m2
00:24 55.2 °F 49.2 °F 30.22 in WSW 4.2 mph 5 mph 80% 0.00 in 0 W/m2
00:29 55.1 °F 49.2 °F 30.22 in WSW 4.9 mph 5 mph 80.5% 0.00 in 0 W/m2
00:34 55 °F 49.3 °F 30.22 in West 4.2 mph 6 mph 81% 0.00 in 0 W/m2
00:39 55 °F 49.3 °F 30.22 in West 3.4 mph 5 mph 81% 0.00 in 0 W/m2
00:44 54.9 °F 49.6 °F 30.22 in WSW 3.4 mph 3 mph 82.4% 0.00 in 0 W/m2
00:49 54.7 °F 49.6 °F 30.22 in WSW 2.9 mph 4 mph 83% 0.00 in 0 W/m2
00:54 54.7 °F 49.6 °F 30.22 in WSW 3.2 mph 5 mph 83% 0.00 in 0 W/m2
00:59 54.5 °F 49.4 °F 30.22 in WSW 2.3 mph 4 mph 83.1% 0.00 in 0 W/m2
01:04 54.4 °F 49.7 °F 30.22 in WSW 2.4 mph 3 mph 84% 0.00 in 0 W/m2
01:09 54.2 °F 49.5 °F 30.22 in West 2.8 mph 2.5 mph 84% 0.00 in 0 W/m2
01:14 54.1 °F 49.5 °F 30.22 in West 3.4 mph 4 mph 84.3% 0.00 in 0 W/m2
01:19 54.1 °F 49.7 °F 30.22 in West 3.9 mph 4 mph 85% 0.00 in 0 W/m2
01:24 54 °F 49.7 °F 30.22 in West 4.5 mph 5 mph 85.2% 0.00 in 0 W/m2
01:29 53.9 °F 49.8 °F 30.23 in West 4.3 mph 5 mph 86% 0.00 in 0 W/m2
01:34 53.7 °F 49.6 °F 30.23 in WSW 5.5 mph 5.1 mph 86% 0.00 in 0 W/m2
01:39 53.5 °F 49.8 °F 30.23 in WSW 5.9 mph 7 mph 87% 0.00 in 0 W/m2
01:44 53.3 °F 49.9 °F 30.23 in WSW 7.4 mph 7 mph 88% 0.00 in 0 W/m2
01:49 53.2 °F 50 °F 30.23 in WSW 7.6 mph 9 mph 88.8% 0.00 in 0 W/m2
01:54 53.1 °F 49.9 °F 30.23 in WSW 8.1 mph 9 mph 89% 0.00 in 0 W/m2
01:59 52.9 °F 49.8 °F 30.23 in WSW 6.5 mph 9 mph 89.4% 0.00 in 0 W/m2
02:04 52.9 °F 49.9 °F 30.23 in WSW 5.5 mph 8 mph 89.6% 0.00 in 0 W/m2
02:09 52.8 °F 49.9 °F 30.23 in West 4.8 mph 6 mph 90% 0.00 in 0 W/m2
02:14 52.6 °F 49.7 °F 30.23 in West 4.9 mph 6 mph 90% 0.00 in 0 W/m2
02:19 52.4 °F 49.7 °F 30.23 in West 5.2 mph 5 mph 90.3% 0.00 in 0 W/m2
02:24 52.3 °F 49.7 °F 30.23 in West 4 mph 6 mph 91% 0.00 in 0 W/m2
02:29 52.2 °F 49.6 °F 30.23 in West 3.7 mph 5 mph 91% 0.00 in 0 W/m2
02:34 52 °F 49.4 °F 30.23 in West 4.5 mph 5 mph 91% 0.00 in 0 W/m2
02:39 51.9 °F 49.4 °F 30.23 in West 3.7 mph 5 mph 91% 0.00 in 0 W/m2
02:44 51.8 °F 49.4 °F 30.23 in WSW 3.8 mph 5 mph 91.4% 0.00 in 0 W/m2
02:49 51.7 °F 49.6 °F 30.22 in WSW 5.3 mph 5 mph 92.4% 0.00 in 0 W/m2
02:54 51.6 °F 49.7 °F 30.23 in WSW 5.8 mph 7 mph 93% 0.00 in 0 W/m2
02:59 51.4 °F 49.5 °F 30.23 in WSW 6.3 mph 7 mph 93% 0.00 in 0 W/m2
03:04 51.4 °F 49.5 °F 30.23 in WSW 5.5 mph 7 mph 93% 0.00 in 0 W/m2
03:09 51.3 °F 49.4 °F 30.23 in WSW 4.9 mph 6 mph 93.1% 0.00 in 0 W/m2
03:14 51.3 °F 49.6 °F 30.23 in WSW 5.5 mph 6 mph 94% 0.00 in 0 W/m2
03:19 51.2 °F 49.5 °F 30.23 in WSW 4.7 mph 6 mph 94% 0.00 in 0 W/m2
03:24 51.1 °F 49.4 °F 30.23 in WSW 3.9 mph 6 mph 94% 0.00 in 0 W/m2
03:29 50.9 °F 49.2 °F 30.23 in SW 3.8 mph 4 mph 94% 0.00 in 0 W/m2
03:34 50.7 °F 49.1 °F 30.23 in SW 4.7 mph 5 mph 94% 0.00 in 0 W/m2
03:39 50.7 °F 49.1 °F 30.23 in WSW 4.2 mph 6 mph 94% 0.00 in 0 W/m2
03:44 50.6 °F 48.9 °F 30.23 in WSW 4.3 mph 5 mph 94% 0.00 in 0 W/m2
03:49 50.5 °F 49.2 °F 30.23 in WSW 3.8 mph 6 mph 94.8% 0.00 in 0 W/m2
03:54 50.5 °F 49.1 °F 30.23 in WSW 4.1 mph 4 mph 95% 0.00 in 0 W/m2
03:59 50.4 °F 49 °F 30.23 in WSW 3.7 mph 5 mph 95% 0.00 in 0 W/m2
04:04 50.3 °F 49 °F 30.23 in WSW 4.2 mph 5 mph 95% 0.00 in 0 W/m2
04:09 50.2 °F 48.8 °F 30.23 in WSW 4.1 mph 5 mph 95% 0.00 in 0 W/m2
04:14 50.2 °F 48.8 °F 30.23 in WSW 4.6 mph 6 mph 95% 0.00 in 0 W/m2
04:19 50.1 °F 48.7 °F 30.23 in WSW 3.4 mph 6 mph 95% 0.00 in 0 W/m2
04:24 49.8 °F 48.4 °F 30.23 in WSW 5 mph 5 mph 95% 0.00 in 0 W/m2
04:29 49.7 °F 48.3 °F 30.23 in SW 4.1 mph 6 mph 95% 0.00 in 0 W/m2
04:34 49.6 °F 48.3 °F 30.23 in SW 4.4 mph 5 mph 95% 0.00 in 0 W/m2
04:39 49.5 °F 48.2 °F 30.23 in SW 3.9 mph 5 mph 95% 0.00 in 0 W/m2
04:44 49.4 °F 48 °F 30.23 in SW 3.8 mph 5 mph 95% 0.00 in 0 W/m2
04:49 49.1 °F 47.7 °F 30.23 in SW 3.3 mph 5 mph 95% 0.00 in 0 W/m2
04:54 49 °F 47.7 °F 30.23 in SW 2.4 mph 4 mph 95% 0.00 in 0 W/m2
04:59 48.9 °F 47.6 °F 30.23 in SW 2.3 mph 3 mph 95% 0.00 in 0 W/m2
05:04 48.8 °F 47.5 °F 30.23 in SSW 2.7 mph 3 mph 95% 0.00 in 0 W/m2
05:09 48.9 °F 47.7 °F 30.23 in South 2.7 mph 3 mph 95.6% 0.00 in 0 W/m2
05:14 49 °F 47.9 °F 30.23 in SSE 2.2 mph 3 mph 96% 0.00 in 0 W/m2
05:19 49.1 °F 47.7 °F 30.23 in SE 1 mph 2 mph 95.2% 0.00 in 0 W/m2
05:24 49 °F 47.6 °F 30.23 in South 0.3 mph 2 mph 95% 0.00 in 0 W/m2
05:29 48.9 °F 47.6 °F 30.23 in SSE 1.1 mph 1 mph 95% 0.00 in 0 W/m2
05:34 48.9 °F 47.6 °F 30.23 in NNE 1.2 mph 2 mph 95% 0.00 in 0 W/m2
05:39 48.8 °F 47.5 °F 30.23 in NNW 1 mph 2 mph 95% 0.00 in 0 W/m2
05:44 48.7 °F 47.7 °F 30.23 in NNW 1.9 mph 1.8 mph 95.9% 0.00 in 0 W/m2
05:49 48.7 °F 47.7 °F 30.23 in West 1.4 mph 2 mph 96% 0.00 in 0 W/m2
05:54 48.7 °F 47.7 °F 30.23 in West 0.8 mph 2 mph 96% 0.00 in 0 W/m2
05:59 48.7 °F 47.7 °F 30.23 in West 1 mph 1 mph 96% 0.00 in 0 W/m2
06:04 48.7 °F 47.7 °F 30.23 in West 1.7 mph 2 mph 96% 0.00 in 1 W/m2
06:09 48.7 °F 47.7 °F 30.23 in WSW 1.6 mph 2 mph 96% 0.00 in 3 W/m2
06:14 48.6 °F 47.5 °F 30.23 in WSW 2.3 mph 2 mph 96% 0.00 in 5 W/m2
06:19 48.5 °F 47.4 °F 30.23 in WSW 2.3 mph 3 mph 96% 0.00 in 10 W/m2
06:24 48.3 °F 47.2 °F 30.23 in SW 2.3 mph 3 mph 96% 0.00 in 12 W/m2
06:29 48.2 °F 47.1 °F 30.23 in SSW 2.2 mph 3 mph 96% 0.00 in 16 W/m2
06:34 48.1 °F 47 °F 30.24 in SSW 1.4 mph 3 mph 96% 0.00 in 20 W/m2
06:39 48 °F 47 °F 30.24 in West 1.6 mph 2 mph 96.3% 0.00 in 26 W/m2
06:44 48 °F 47.5 °F 30.24 in West 2.1 mph 2 mph 97.9% 0.00 in 32 W/m2
06:49 48 °F 47.5 °F 30.24 in WSW 2.1 mph 2 mph 98% 0.00 in 31 W/m2
06:54 48 °F 47.5 °F 30.25 in SW 2 mph 2 mph 98% 0.00 in 38 W/m2
06:59 48.2 °F 47.7 °F 30.25 in SE 1.9 mph 3 mph 98% 0.00 in 64 W/m2
07:04 48.3 °F 47.7 °F 30.25 in South 1.8 mph 2 mph 98% 0.00 in 66 W/m2
07:09 48.4 °F 47.8 °F 30.25 in SSW 2.2 mph 2 mph 98% 0.00 in 79 W/m2
07:14 48.6 °F 48 °F 30.25 in SSW 3 mph 2.2 mph 98% 0.00 in 105 W/m2
07:19 48.7 °F 48.1 °F 30.25 in South 3.2 mph 4 mph 98% 0.00 in 115 W/m2
07:24 48.8 °F 47.9 °F 30.25 in South 3.1 mph 4 mph 96.7% 0.00 in 125 W/m2
07:29 49.1 °F 48 °F 30.25 in SSW 1.6 mph 3 mph 96% 0.00 in 126 W/m2
07:34 49.6 °F 48.5 °F 30.25 in SW 0.9 mph 2 mph 96% 0.00 in 154 W/m2
07:39 50.2 °F 48.9 °F 30.25 in SW 2.2 mph 2 mph 95.5% 0.00 in 169 W/m2
07:44 51 °F 49.5 °F 30.25 in WSW 1.7 mph 2 mph 94.9% 0.00 in 179 W/m2
07:49 51.7 °F 50 °F 30.25 in WSW 2.3 mph 3 mph 93.8% 0.00 in 196 W/m2
07:54 52.6 °F 50.6 °F 30.25 in SW 3.2 mph 2.2 mph 93% 0.00 in 198 W/m2
07:59 53.1 °F 50.7 °F 30.25 in SW 4.5 mph 5 mph 91.3% 0.00 in 194 W/m2
08:04 53.6 °F 50.8 °F 30.26 in SW 3.5 mph 5 mph 90.3% 0.00 in 194 W/m2
08:09 53.8 °F 50.9 °F 30.26 in SW 2.5 mph 4 mph 90% 0.00 in 212 W/m2
08:14 54 °F 51.1 °F 30.26 in SW 3.2 mph 3 mph 89.7% 0.00 in 260 W/m2
08:19 54.1 °F 51 °F 30.25 in SSW 3.8 mph 4 mph 89% 0.00 in 269 W/m2
08:24 54.2 °F 51 °F 30.25 in South 2.8 mph 5 mph 89% 0.00 in 290 W/m2
08:29 54.8 °F 51.5 °F 30.25 in SSW 2.1 mph 3 mph 88.6% 0.00 in 301 W/m2
08:34 55.4 °F 51.5 °F 30.25 in SW 2.7 mph 2 mph 86.6% 0.00 in 307 W/m2
08:39 56.2 °F 51.9 °F 30.25 in SW 2.8 mph 3 mph 85.6% 0.00 in 337 W/m2
08:44 56.8 °F 52.2 °F 30.25 in WSW 4.1 mph 3.1 mph 84.5% 0.00 in 365 W/m2
08:49 56.8 °F 52.1 °F 30.25 in WSW 3.4 mph 5 mph 84% 0.00 in 338 W/m2
08:54 56.6 °F 51.7 °F 30.25 in SW 4 mph 3 mph 83.6% 0.00 in 357 W/m2
08:59 56.5 °F 51.9 °F 30.25 in SW 4.7 mph 5 mph 84.6% 0.00 in 361 W/m2
09:04 56.8 °F 52 °F 30.24 in SW 6.1 mph 6 mph 84.2% 0.00 in 392 W/m2
09:09 56.9 °F 52.2 °F 30.25 in SW 7.1 mph 7 mph 84% 0.00 in 403 W/m2
09:14 57.5 °F 52.6 °F 30.24 in WSW 8.3 mph 9 mph 83.6% 0.00 in 417 W/m2
09:19 58 °F 52.9 °F 30.24 in WSW 8.4 mph 10 mph 83% 0.00 in 448 W/m2
09:24 58.2 °F 52.6 °F 30.24 in WSW 8.3 mph 9 mph 81.4% 0.00 in 481 W/m2
09:29 58.1 °F 52.3 °F 30.24 in SW 9.5 mph 9 mph 81% 0.00 in 491 W/m2
09:34 58.2 °F 52.3 °F 30.23 in SW 8.2 mph 10 mph 81% 0.00 in 465 W/m2
09:39 58.6 °F 52.6 °F 30.23 in SW 8.5 mph 10 mph 80.5% 0.00 in 448 W/m2
09:44 58.8 °F 52.7 °F 30.23 in SW 8.2 mph 9 mph 80% 0.00 in 448 W/m2
09:49 59 °F 52.6 °F 30.23 in SW 8.3 mph 9 mph 79.3% 0.00 in 437 W/m2
09:54 58.8 °F 52.3 °F 30.23 in SW 9 mph 9 mph 79% 0.00 in 426 W/m2
09:59 58.8 °F 52.3 °F 30.23 in SW 9.4 mph 10 mph 79% 0.00 in 345 W/m2
10:04 59.2 °F 52.6 °F 30.23 in SW 10.1 mph 10 mph 79% 0.00 in 349 W/m2
10:09 59.5 °F 53 °F 30.23 in SW 9.5 mph 11 mph 79% 0.00 in 329 W/m2
10:14 60.1 °F 53.3 °F 30.23 in SW 10 mph 12 mph 78.2% 0.00 in 341 W/m2
10:19 60.3 °F 53.3 °F 30.22 in SW 11.2 mph 13 mph 77.8% 0.00 in 376 W/m2
10:24 60.5 °F 53.5 °F 30.22 in SW 9.2 mph 13 mph 77.6% 0.00 in 365 W/m2
10:29 60.9 °F 53.6 °F 30.22 in SW 9.7 mph 10 mph 77% 0.00 in 362 W/m2
10:34 61 °F 53.1 °F 30.22 in SW 8.6 mph 11 mph 75.2% 0.00 in 412 W/m2
10:39 61.2 °F 53.2 °F 30.22 in SW 9 mph 10 mph 75% 0.00 in 448 W/m2
10:44 61.6 °F 53.6 °F 30.22 in SW 7.6 mph 10 mph 75% 0.00 in 471 W/m2
10:49 62.3 °F 53.9 °F 30.21 in WSW 8.3 mph 9 mph 74.2% 0.00 in 511 W/m2
10:54 62.8 °F 54.1 °F 30.21 in WSW 7.7 mph 9 mph 73.3% 0.00 in 516 W/m2
10:59 63 °F 54.2 °F 30.21 in SW 7.8 mph 8 mph 73% 0.00 in 520 W/m2
11:04 63.5 °F 54.3 °F 30.21 in WSW 7.4 mph 8 mph 72.1% 0.00 in 541 W/m2
11:09 64 °F 54.3 °F 30.21 in WSW 7.2 mph 8 mph 70.5% 0.00 in 541 W/m2
11:14 64.7 °F 54.5 °F 30.20 in WSW 6.3 mph 8 mph 69.6% 0.00 in 548 W/m2
11:19 65.2 °F 54.6 °F 30.20 in WSW 5.8 mph 7 mph 68.5% 0.00 in 545 W/m2
11:24 65.4 °F 54.4 °F 30.20 in WSW 4.4 mph 7 mph 67.5% 0.00 in 544 W/m2
11:29 66 °F 54.6 °F 30.19 in WSW 5 mph 5 mph 66.7% 0.00 in 541 W/m2
11:30 66.2 °F 54.5 °F 30.19 in WSW 3 mph 6 mph 66% 0.00 in 476 W/m2
11:39 66.7 °F 54.7 °F 30.19 in WSW 4.6 mph 6 mph 65.3% 0.00 in 538 W/m2
11:44 66.9 °F 54.5 °F 30.19 in WSW 5.4 mph 5 mph 64.5% 0.00 in 534 W/m2
11:49 66.9 °F 54.3 °F 30.19 in SW 4.9 mph 7 mph 64% 0.00 in 534 W/m2
11:54 67.1 °F 54.5 °F 30.19 in SW 4.3 mph 6 mph 64% 0.00 in 533 W/m2
11:59 67.4 °F 54.7 °F 30.19 in SW 4.2 mph 5 mph 63.8% 0.00 in 532 W/m2
12:04 67.5 °F 54.4 °F 30.19 in SW 4.4 mph 5 mph 63% 0.00 in 523 W/m2
12:09 67.4 °F 54.1 °F 30.18 in SSW 3.2 mph 5 mph 62.4% 0.00 in 520 W/m2
12:14 67.4 °F 54.4 °F 30.18 in South 5.3 mph 5 mph 63% 0.00 in 519 W/m2
12:19 67.5 °F 54.1 °F 30.17 in South 4.8 mph 6 mph 62.1% 0.00 in 512 W/m2
12:24 67.7 °F 54.1 °F 30.17 in South 4.3 mph 6 mph 61.6% 0.00 in 507 W/m2
12:29 67.9 °F 53.8 °F 30.17 in South 4.2 mph 5 mph 60.7% 0.00 in 495 W/m2
12:34 67.9 °F 53.2 °F 30.17 in South 3.5 mph 5 mph 59.4% 0.00 in 496 W/m2
12:39 68 °F 53.5 °F 30.17 in SSE 4.7 mph 5 mph 59.8% 0.00 in 493 W/m2
12:44 68.1 °F 53.3 °F 30.17 in SSE 4.1 mph 6 mph 59.2% 0.00 in 486 W/m2
12:49 68.2 °F 53.4 °F 30.17 in SSE 4.3 mph 5 mph 59.2% 0.00 in 475 W/m2
12:54 68.7 °F 53.8 °F 30.16 in ESE 3.6 mph 6 mph 58.8% 0.00 in 465 W/m2
12:59 69.4 °F 54 °F 30.16 in NE 2.6 mph 5 mph 58.1% 0.00 in 455 W/m2
13:04 69.6 °F 53.7 °F 30.16 in ESE 3.4 mph 3 mph 57% 0.00 in 441 W/m2
13:09 69.7 °F 53.4 °F 30.16 in ESE 2.8 mph 3 mph 56.2% 0.00 in 435 W/m2
13:14 70.2 °F 54.3 °F 30.15 in North 4.5 mph 4.5 mph 57.3% 0.00 in 425 W/m2
13:19 70.6 °F 54.6 °F 30.15 in NNW 7.6 mph 6 mph 57% 0.00 in 411 W/m2
13:24 70.7 °F 53.9 °F 30.15 in North 7 mph 9 mph 55.4% 0.00 in 401 W/m2
13:29 71 °F 53.7 °F 30.15 in NNE 5.9 mph 8 mph 54.5% 0.00 in 394 W/m2
13:34 71.1 °F 54 °F 30.14 in NNE 7.1 mph 8 mph 54.7% 0.00 in 384 W/m2
13:39 71.2 °F 54.2 °F 30.14 in NNE 5.1 mph 8 mph 55% 0.00 in 370 W/m2
13:44 71.4 °F 54.1 °F 30.14 in North 6.6 mph 7 mph 54.3% 0.00 in 356 W/m2
13:49 71.2 °F 53.5 °F 30.14 in North 6.1 mph 8 mph 53.5% 0.00 in 343 W/m2
13:54 71.1 °F 53.2 °F 30.14 in North 6.7 mph 8 mph 53.1% 0.00 in 331 W/m2
13:59 71.1 °F 53.1 °F 30.14 in North 6.5 mph 7 mph 53% 0.00 in 317 W/m2
14:04 70.9 °F 52.6 °F 30.14 in North 7.3 mph 8 mph 52.3% 0.00 in 304 W/m2
14:09 70.9 °F 52.4 °F 30.14 in North 8 mph 8 mph 52% 0.00 in 291 W/m2
14:14 70.9 °F 52.4 °F 30.14 in North 7.9 mph 9 mph 52% 0.00 in 279 W/m2
14:19 70.9 °F 52.4 °F 30.13 in North 9.2 mph 9 mph 52% 0.00 in 266 W/m2
14:24 70.9 °F 52.4 °F 30.13 in North 6.6 mph 10 mph 52% 0.00 in 252 W/m2
14:29 70.9 °F 52.2 °F 30.13 in North 7.4 mph 8 mph 51.6% 0.00 in 238 W/m2
14:34 70.6 °F 52.1 °F 30.13 in North 7.4 mph 8 mph 52% 0.00 in 223 W/m2
14:39 70.5 °F 52.5 °F 30.13 in North 5.3 mph 8 mph 52.8% 0.00 in 209 W/m2
14:44 70.3 °F 52.4 °F 30.13 in North 4.1 mph 6 mph 53% 0.00 in 196 W/m2
14:49 70.2 °F 52.3 °F 30.13 in North 4.7 mph 7 mph 53.3% 0.00 in 181 W/m2
14:54 70.2 °F 52.6 °F 30.13 in North 5.5 mph 6 mph 53.8% 0.00 in 168 W/m2
14:59 70 °F 52.1 °F 30.13 in North 7.1 mph 7 mph 53% 0.00 in 159 W/m2
15:04 69.6 °F 51.8 °F 30.13 in North 4.1 mph 8 mph 53.2% 0.00 in 146 W/m2
15:09 69.4 °F 52.1 °F 30.13 in North 4.3 mph 5 mph 54% 0.00 in 134 W/m2
15:14 69.2 °F 52.1 °F 30.13 in North 6.9 mph 8 mph 54.5% 0.00 in 122 W/m2
15:19 68.9 °F 52.1 °F 30.13 in North 5.3 mph 8 mph 55% 0.00 in 108 W/m2
15:24 68.6 °F 52.7 °F 30.13 in North 6.4 mph 6 mph 56.8% 0.00 in 96 W/m2
15:29 68.3 °F 52.6 °F 30.13 in North 5.2 mph 8 mph 57.4% 0.00 in 83 W/m2
15:34 68 °F 52.6 °F 30.12 in North 7.1 mph 7 mph 58% 0.00 in 71 W/m2
15:39 67.5 °F 52.2 °F 30.12 in North 5.5 mph 8 mph 58% 0.00 in 60 W/m2
15:44 67.1 °F 51.9 °F 30.12 in North 4.4 mph 8 mph 58% 0.00 in 51 W/m2
15:49 66.8 °F 51.9 °F 30.12 in North 6.7 mph 7 mph 58.7% 0.00 in 43 W/m2
15:54 66.6 °F 51.8 °F 30.12 in North 5.7 mph 7 mph 59% 0.00 in 36 W/m2
15:59 66.3 °F 51.5 °F 30.12 in North 4.8 mph 6 mph 59% 0.00 in 29 W/m2
16:04 66 °F 51.3 °F 30.12 in NNW 5.8 mph 6 mph 59% 0.00 in 24 W/m2
16:09 65.7 °F 51 °F 30.12 in NNW 6.5 mph 7 mph 59% 0.00 in 17 W/m2
16:14 65.5 °F 51 °F 30.12 in NNW 5.2 mph 9 mph 59.5% 0.00 in 13 W/m2
16:19 65.1 °F 50.9 °F 30.12 in NNW 8.1 mph 6 mph 60% 0.00 in 9 W/m2
16:24 64.9 °F 50.7 °F 30.12 in NNW 7.8 mph 12 mph 60% 0.00 in 5 W/m2
16:29 64.7 °F 50.9 °F 30.12 in NNW 3.3 mph 12 mph 61% 0.00 in 3 W/m2
16:34 64.4 °F 51.1 °F 30.12 in WNW 2.5 mph 4 mph 62% 0.00 in 1 W/m2
16:39 64.1 °F 50.8 °F 30.12 in WNW 1.5 mph 3 mph 62% 0.00 in 0 W/m2
16:44 63.7 °F 50.6 °F 30.12 in West 2.1 mph 2 mph 62.5% 0.00 in 0 W/m2
16:49 63.2 °F 50.4 °F 30.12 in SW 1.3 mph 2 mph 63% 0.00 in 0 W/m2
16:54 62.8 °F 50.1 °F 30.12 in SW 1.5 mph 2 mph 63.3% 0.00 in 0 W/m2
16:59 62.3 °F 50 °F 30.12 in WSW 2.1 mph 2 mph 64% 0.00 in 0 W/m2
17:04 61.9 °F 49.7 °F 30.12 in WSW 2.6 mph 3 mph 64.3% 0.00 in 0 W/m2
17:09 61.5 °F 49.6 °F 30.12 in West 2.3 mph 3 mph 65% 0.00 in 0 W/m2
17:14 61.1 °F 49.3 °F 30.12 in WNW 1.6 mph 2 mph 65% 0.00 in 0 W/m2
17:19 60.7 °F 49.5 °F 30.12 in NW 1.1 mph 2 mph 66.4% 0.00 in 0 W/m2
17:24 60.3 °F 49.5 °F 30.12 in West 1.6 mph 1.1 mph 67.4% 0.00 in 0 W/m2
17:29 59.9 °F 49.3 °F 30.12 in WSW 2.3 mph 2 mph 68% 0.00 in 0 W/m2
17:34 59.5 °F 49.1 °F 30.12 in WSW 2.5 mph 3 mph 68.6% 0.00 in 0 W/m2
17:39 58.9 °F 48.7 °F 30.12 in WSW 3.1 mph 3 mph 69% 0.00 in 0 W/m2
17:44 58.5 °F 48.3 °F 30.12 in WSW 3.3 mph 4 mph 68.7% 0.00 in 0 W/m2
17:49 58.1 °F 47.9 °F 30.12 in West 3 mph 3 mph 68.7% 0.00 in 0 W/m2
17:54 57.6 °F 47.5 °F 30.12 in WSW 2.8 mph 3 mph 69% 0.00 in 0 W/m2
17:59 57.1 °F 47 °F 30.12 in WSW 2.7 mph 3 mph 69% 0.00 in 0 W/m2
18:04 56.7 °F 46.9 °F 30.12 in WSW 3.3 mph 3 mph 69.5% 0.00 in 0 W/m2
18:09 56.3 °F 46.6 °F 30.12 in WSW 3.5 mph 4 mph 70% 0.00 in 0 W/m2
18:14 55.9 °F 46.3 °F 30.12 in WSW 4.8 mph 5 mph 70% 0.00 in 0 W/m2
18:19 55.5 °F 46.5 °F 30.12 in West 4.8 mph 6 mph 71.8% 0.00 in 0 W/m2
18:24 55.1 °F 46.3 °F 30.12 in West 4.3 mph 6 mph 72% 0.00 in 0 W/m2
18:29 54.9 °F 46.1 °F 30.12 in West 3.4 mph 5 mph 72.3% 0.00 in 0 W/m2
18:34 54.6 °F 46.1 °F 30.12 in West 3.7 mph 3.4 mph 73% 0.00 in 0 W/m2
18:39 54.1 °F 45.9 °F 30.12 in West 4 mph 5 mph 73.5% 0.00 in 0 W/m2
18:44 53.9 °F 45.8 °F 30.12 in West 4.5 mph 5 mph 74% 0.00 in 0 W/m2
18:49 53.5 °F 45.4 °F 30.12 in West 4.2 mph 5 mph 74% 0.00 in 0 W/m2
18:54 53.2 °F 45.5 °F 30.12 in West 3.5 mph 5 mph 74.9% 0.00 in 0 W/m2
18:59 53 °F 45.3 °F 30.12 in West 4 mph 4 mph 75% 0.00 in 0 W/m2
19:04 52.8 °F 45.1 °F 30.12 in West 3.5 mph 5 mph 75% 0.00 in 0 W/m2
19:09 52.6 °F 45.2 °F 30.12 in West 3 mph 3 mph 75.8% 0.00 in 0 W/m2
19:14 52.3 °F 45.3 °F 30.12 in WNW 2.8 mph 3 mph 77% 0.00 in 0 W/m2
19:19 52.2 °F 45.3 °F 30.12 in WNW 3.4 mph 3 mph 77.2% 0.00 in 0 W/m2
19:24 52.1 °F 45.4 °F 30.12 in WNW 3.2 mph 3 mph 78% 0.00 in 0 W/m2
19:29 51.9 °F 45.2 °F 30.12 in WNW 3.2 mph 3 mph 78% 0.00 in 0 W/m2
19:34 51.7 °F 45.1 °F 30.12 in NW 3.3 mph 3 mph 78% 0.00 in 0 W/m2
19:39 51.6 °F 45.2 °F 30.12 in NNW 1.7 mph 3 mph 78.5% 0.00 in 0 W/m2
19:44 51.5 °F 44.9 °F 30.12 in NW 1.2 mph 2 mph 78% 0.00 in 0 W/m2
19:49 51.4 °F 44.8 °F 30.12 in West 1.2 mph 2 mph 78% 0.00 in 0 W/m2
19:54 51.2 °F 44.6 °F 30.12 in WSW 1.3 mph 1.1 mph 78% 0.00 in 0 W/m2
19:59 51.1 °F 44.7 °F 30.12 in West 2.2 mph 2 mph 78.7% 0.00 in 0 W/m2
20:04 50.9 °F 44.6 °F 30.12 in West 2.2 mph 2 mph 79% 0.00 in 0 W/m2
20:09 50.9 °F 44.8 °F 30.12 in West 2.2 mph 2 mph 79.6% 0.00 in 0 W/m2
20:14 50.9 °F 44.9 °F 30.12 in WNW 2.1 mph 2 mph 80% 0.00 in 0 W/m2
20:19 50.9 °F 44.9 °F 30.12 in WNW 2.2 mph 2 mph 80% 0.00 in 0 W/m2
20:24 50.9 °F 44.9 °F 30.12 in WNW 2.2 mph 2 mph 80% 0.00 in 0 W/m2
20:29 50.9 °F 44.9 °F 30.12 in WNW 1.8 mph 2 mph 80% 0.00 in 0 W/m2
20:34 50.9 °F 44.9 °F 30.12 in WNW 1.5 mph 2 mph 80% 0.00 in 0 W/m2
20:39 50.8 °F 44.8 °F 30.12 in NW 0.5 mph 2 mph 80% 0.00 in 0 W/m2
Knjazevac, Serbia
Compliments of Weather Underground - 2 mb